Terminal Aerodrome Forecast
Issued by NWS Wakefield, VA

Home | Current Version | Previous Version | Text Only | Print | Product List | Glossary On
Versions: 1 2 3 4 5 6 7 8 9 10 11 12 13 14 15 16 17
000
FTUS41 KAKQ 231738
TAFRIC
TAF
KRIC 231738Z 2318/2418 22013KT P6SM SCT025 BKN090
     FM232000 23013KT P6SM VCSH BKN035
     FM240000 22012KT P6SM BKN100
     FM240600 21019G26KT P6SM BKN100
     FM240800 22020G28KT 5SM -SHRA OVC060
     FM241200 27017G24KT P6SM BKN100=

USA.gov is the U.S. government's official web portal to all federal, state and local government web resources and services.